createdAt,value
2022-11-30T00:01:48.452Z,-9.48
2022-11-30T00:06:56.998Z,-9.69
2022-11-30T00:12:00.236Z,-9.72
2022-11-30T00:17:05.016Z,-9.73
2022-11-30T00:22:08.422Z,-9.75
2022-11-30T00:27:11.701Z,-9.69
2022-11-30T00:32:16.379Z,-9.68
2022-11-30T00:37:19.796Z,-9.74
2022-11-30T00:42:23.220Z,-9.65
2022-11-30T00:47:27.959Z,-9.60
2022-11-30T00:52:31.682Z,-9.57
2022-11-30T00:57:34.977Z,-9.57
2022-11-30T01:02:39.704Z,-9.61
2022-11-30T01:07:43.096Z,-9.59
2022-11-30T01:12:46.532Z,-9.53
2022-11-30T01:17:51.361Z,-9.50
2022-11-30T01:22:55.997Z,-9.48
2022-11-30T01:27:59.235Z,-9.56
2022-11-30T01:33:05.873Z,-9.53
2022-11-30T01:38:09.125Z,-9.58
2022-11-30T01:43:13.356Z,-9.46
2022-11-30T01:48:18.062Z,-9.65
2022-11-30T01:53:21.406Z,-9.48
2022-11-30T01:58:28.639Z,-9.49
2022-11-30T02:03:41.133Z,-9.51
2022-11-30T02:08:44.794Z,-9.60
2022-11-30T02:14:00.016Z,-9.65
2022-11-30T02:19:19.179Z,-9.74
2022-11-30T02:24:38.299Z,-9.75
2022-11-30T02:29:45.243Z,-9.66
2022-11-30T02:34:50.713Z,-9.71
2022-11-30T02:39:53.857Z,-9.70
2022-11-30T02:44:58.580Z,-9.75
2022-11-30T02:50:06.030Z,-9.76
2022-11-30T02:55:11.614Z,-9.96
2022-11-30T03:00:18.687Z,-9.84
2022-11-30T03:05:22.040Z,-9.88
2022-11-30T03:10:25.647Z,-9.86
2022-11-30T03:15:30.260Z,-9.84
2022-11-30T03:20:34.018Z,-9.97
2022-11-30T03:25:37.336Z,-10.06
2022-11-30T03:30:42.096Z,-9.95
2022-11-30T03:35:45.613Z,-10.09
2022-11-30T03:40:49.029Z,-9.97
2022-11-30T03:45:53.578Z,-9.91
2022-11-30T03:50:57.020Z,-9.97
2022-11-30T03:56:02.234Z,-9.85
2022-11-30T04:01:09.649Z,-9.79
2022-11-30T04:06:13.992Z,-9.83
2022-11-30T04:11:17.068Z,-9.83
2022-11-30T04:16:21.859Z,-9.93
2022-11-30T04:21:25.267Z,-9.98
2022-11-30T04:26:28.549Z,-9.90
2022-11-30T04:31:33.275Z,-9.92
2022-11-30T04:36:36.786Z,-9.99
2022-11-30T04:41:41.074Z,-9.97
2022-11-30T04:46:45.742Z,-10.07
2022-11-30T04:51:49.075Z,-10.09
2022-11-30T04:56:52.360Z,-10.23
2022-11-30T05:01:57.428Z,-10.25
2022-11-30T05:07:00.843Z,-10.23
2022-11-30T05:12:04.255Z,-10.28
2022-11-30T05:17:08.961Z,-10.25
2022-11-30T05:22:12.302Z,-10.19
2022-11-30T05:27:22.200Z,-10.16
2022-11-30T05:32:27.206Z,-10.27
2022-11-30T05:37:30.669Z,-10.27
2022-11-30T05:42:34.111Z,-10.14
2022-11-30T05:47:38.959Z,-10.00
2022-11-30T05:52:42.284Z,-9.77
2022-11-30T05:57:45.492Z,-9.75
2022-11-30T06:02:50.247Z,-9.70
2022-11-30T06:07:53.521Z,-9.65
2022-11-30T06:12:57.107Z,-9.51
2022-11-30T06:18:01.747Z,-9.50
2022-11-30T06:23:05.162Z,-9.41
2022-11-30T06:28:10.730Z,-9.26
2022-11-30T06:33:15.476Z,-7.99
2022-11-30T06:38:18.846Z,-4.54
2022-11-30T06:43:22.130Z,-2.01
2022-11-30T06:48:26.692Z,0.59
2022-11-30T06:53:29.740Z,2.57
2022-11-30T06:58:32.949Z,3.70
2022-11-30T07:03:37.665Z,4.74
2022-11-30T07:08:41.927Z,5.59
2022-11-30T07:13:45.844Z,6.71
2022-11-30T07:18:50.501Z,8.49
2022-11-30T07:24:12.714Z,9.82
2022-11-30T07:29:16.023Z,11.36
2022-11-30T07:34:21.050Z,10.89
2022-11-30T07:39:24.874Z,10.54
2022-11-30T07:44:28.230Z,10.98
2022-11-30T07:49:32.847Z,11.37
2022-11-30T07:54:36.257Z,11.79
2022-11-30T07:59:39.641Z,11.38
2022-11-30T08:04:44.568Z,10.72
2022-11-30T08:09:49.188Z,10.64
2022-11-30T08:15:18.657Z,11.00
2022-11-30T08:20:17.234Z,8.67
2022-11-30T08:25:20.517Z,9.27
2022-11-30T08:30:27.861Z,8.39
2022-11-30T08:35:35.668Z,7.29
2022-11-30T08:40:39.009Z,4.67
2022-11-30T08:45:42.431Z,1.76
2022-11-30T08:50:47.049Z,0.52
2022-11-30T08:55:58.015Z,-0.58
2022-11-30T09:01:07.838Z,-1.16
2022-11-30T09:06:14.008Z,-1.59
2022-11-30T09:11:19.348Z,-1.84
2022-11-30T09:16:23.480Z,-2.63
2022-11-30T09:21:28.162Z,-3.36
2022-11-30T09:26:31.412Z,-3.90
2022-11-30T09:31:34.673Z,-3.61
2022-11-30T09:36:39.448Z,-3.61
2022-11-30T09:42:14.641Z,-3.83
2022-11-30T09:47:33.097Z,-3.59
2022-11-30T09:52:41.332Z,-3.39
2022-11-30T09:57:47.967Z,-3.97
2022-11-30T10:02:53.209Z,-4.23
2022-11-30T10:08:19.186Z,-4.34
2022-11-30T10:13:36.078Z,-4.39
2022-11-30T10:18:51.768Z,-4.54
2022-11-30T10:24:22.176Z,-4.58
2022-11-30T10:29:32.300Z,-4.68
2022-11-30T10:34:37.637Z,-4.84
2022-11-30T10:39:54.100Z,-5.06
2022-11-30T10:45:02.421Z,-5.17
2022-11-30T10:50:08.852Z,-5.02
2022-11-30T10:55:20.040Z,-4.96
2022-11-30T11:00:23.898Z,-4.95
2022-11-30T11:05:29.418Z,-4.98
2022-11-30T11:10:37.141Z,-4.80
2022-11-30T11:15:40.728Z,-4.96
2022-11-30T11:20:43.917Z,-4.97
2022-11-30T11:25:53.461Z,-4.92
2022-11-30T11:30:58.718Z,-5.05
2022-11-30T11:36:15.724Z,-4.99
2022-11-30T11:41:25.497Z,-5.21
2022-11-30T11:46:30.223Z,-5.37
2022-11-30T11:51:35.801Z,-5.52
2022-11-30T11:56:42.477Z,-5.40
2022-11-30T12:01:54.352Z,-5.56
2022-11-30T12:07:01.429Z,-5.54
2022-11-30T12:12:06.955Z,-5.53
2022-11-30T12:17:40.328Z,-5.50
2022-11-30T12:23:06.707Z,-5.42
2022-11-30T12:28:23.100Z,-5.41
2022-11-30T12:33:41.512Z,-5.47
2022-11-30T12:38:50.490Z,-5.52
2022-11-30T12:44:04.340Z,-5.58
2022-11-30T12:49:21.255Z,-5.65
2022-11-30T12:54:32.103Z,-5.81
2022-11-30T12:59:45.148Z,-5.95
2022-11-30T13:04:58.051Z,-6.08
2022-11-30T13:10:07.522Z,-6.15
2022-11-30T13:15:19.082Z,-6.24
2022-11-30T13:20:30.101Z,-6.34
2022-11-30T13:31:10.158Z,-6.56
2022-11-30T13:36:25.787Z,-6.60
2022-11-30T13:41:29.487Z,-6.69
2022-11-30T13:46:34.208Z,-6.70
2022-11-30T13:51:39.786Z,-6.94
2022-11-30T13:56:48.467Z,-7.03
2022-11-30T14:07:35.988Z,-7.03
2022-11-30T14:13:01.621Z,-7.18
2022-11-30T14:18:17.628Z,-7.31
2022-11-30T14:23:23.851Z,-7.47
2022-11-30T14:28:44.382Z,-7.62
2022-11-30T14:33:54.602Z,-7.58
2022-11-30T14:38:58.059Z,-7.58
2022-11-30T14:44:08.031Z,-7.55
2022-11-30T14:49:18.296Z,-7.56
2022-11-30T14:54:39.103Z,-7.66
2022-11-30T14:59:48.834Z,-7.79
2022-11-30T15:04:55.744Z,-8.06
2022-11-30T15:10:05.732Z,-8.02
2022-11-30T15:15:17.091Z,-8.02
2022-11-30T15:20:27.907Z,-8.05
2022-11-30T15:25:38.757Z,-8.13
2022-11-30T15:30:44.552Z,-8.23
2022-11-30T15:41:20.558Z,-8.33
2022-11-30T15:46:32.988Z,-8.38
2022-11-30T15:51:42.561Z,-8.28
2022-11-30T15:56:57.794Z,-8.32
2022-11-30T16:02:08.909Z,-8.37
2022-11-30T16:07:19.197Z,-8.38
2022-11-30T16:12:29.624Z,-8.42
2022-11-30T16:17:34.514Z,-8.47
2022-11-30T16:22:42.379Z,-8.50
2022-11-30T16:27:47.982Z,-8.51
2022-11-30T16:32:51.995Z,-8.49
2022-11-30T16:37:56.890Z,-8.54
2022-11-30T16:43:00.495Z,-8.54
2022-11-30T16:48:04.879Z,-8.56
2022-11-30T16:53:11.739Z,-8.64
2022-11-30T16:58:15.246Z,-8.67
2022-11-30T17:03:24.180Z,-8.62
2022-11-30T17:08:29.178Z,-8.67
2022-11-30T17:13:34.440Z,-8.77
2022-11-30T17:18:38.220Z,-8.75
2022-11-30T17:23:43.335Z,-8.79
2022-11-30T17:28:49.746Z,-8.76
2022-11-30T17:33:53.111Z,-8.79
2022-11-30T17:38:58.129Z,-8.79
2022-11-30T17:44:03.229Z,-8.85
2022-11-30T17:49:07.458Z,-8.94
2022-11-30T17:54:13.302Z,-8.89
2022-11-30T17:59:17.109Z,-8.89
2022-11-30T18:04:20.608Z,-8.95
2022-11-30T18:09:25.548Z,-8.90
2022-11-30T18:14:28.977Z,-8.93
2022-11-30T18:19:32.348Z,-8.91
2022-11-30T18:24:37.135Z,-8.97
2022-11-30T18:29:40.613Z,-9.03
2022-11-30T18:34:49.369Z,-9.09
2022-11-30T18:39:54.462Z,-9.18
2022-11-30T18:44:57.802Z,-9.23
2022-11-30T18:50:01.340Z,-9.29
2022-11-30T18:55:06.884Z,-9.38
2022-11-30T19:00:11.538Z,-9.61
2022-11-30T19:05:31.713Z,-9.52
2022-11-30T19:10:37.589Z,-9.54
2022-11-30T19:15:42.271Z,-9.68
2022-11-30T19:20:46.716Z,-9.66
2022-11-30T19:25:51.415Z,-9.62
2022-11-30T19:30:54.859Z,-9.69
2022-11-30T19:36:03.204Z,-9.69
2022-11-30T19:41:09.273Z,-9.73
2022-11-30T19:46:14.524Z,-9.78
2022-11-30T19:51:18.910Z,-9.83
2022-11-30T19:56:25.001Z,-9.95
2022-11-30T20:01:29.090Z,-10.01
2022-11-30T20:06:36.360Z,-9.97
2022-11-30T20:11:41.375Z,-10.01
2022-11-30T20:16:44.946Z,-10.19
2022-11-30T20:21:48.928Z,-10.25
2022-11-30T20:26:53.757Z,-10.41
2022-11-30T20:31:57.384Z,-10.33
2022-11-30T20:37:00.722Z,-10.36
2022-11-30T20:42:05.592Z,-10.50
2022-11-30T20:47:09.214Z,-10.59
2022-11-30T20:52:12.566Z,-10.58
2022-11-30T20:57:17.194Z,-10.52
2022-11-30T21:02:20.572Z,-10.48
2022-11-30T21:07:24.148Z,-10.58
2022-11-30T21:12:28.787Z,-10.56
2022-11-30T21:17:32.101Z,-10.67
2022-11-30T21:22:35.446Z,-10.65
2022-11-30T21:27:40.116Z,-10.71
2022-11-30T21:32:43.520Z,-10.71
2022-11-30T21:37:46.974Z,-10.76
2022-11-30T21:42:51.703Z,-10.81
2022-11-30T21:47:55.107Z,-10.97
2022-11-30T21:52:58.451Z,-11.03
2022-11-30T21:58:03.155Z,-10.92
2022-11-30T22:03:06.619Z,-10.96
2022-11-30T22:08:09.991Z,-10.97
2022-11-30T22:13:14.605Z,-11.01
2022-11-30T22:18:18.075Z,-11.00
2022-11-30T22:23:21.853Z,-10.99
2022-11-30T22:28:26.636Z,-10.93
2022-11-30T22:33:29.995Z,-11.06
2022-11-30T22:38:33.649Z,-11.11
2022-11-30T22:43:38.557Z,-11.18
2022-11-30T22:48:42.664Z,-11.24
2022-11-30T22:53:47.666Z,-11.25
2022-11-30T22:58:54.461Z,-11.29
2022-11-30T23:04:02.321Z,-11.33
2022-11-30T23:09:07.123Z,-11.34
2022-11-30T23:14:12.369Z,-11.34
2022-11-30T23:19:16.136Z,-11.39
2022-11-30T23:24:21.606Z,-11.38
2022-11-30T23:29:26.516Z,-11.39
2022-11-30T23:34:29.992Z,-11.42
2022-11-30T23:39:33.355Z,-11.45
2022-11-30T23:44:38.131Z,-11.52
2022-11-30T23:49:41.464Z,-11.55
2022-11-30T23:54:44.821Z,-11.52
2022-11-30T23:59:49.714Z,-11.53
